createdAt,value
2018-06-27T00:00:25.050Z,992.71
2018-06-27T00:01:25.259Z,992.72
2018-06-27T00:02:25.451Z,992.74
2018-06-27T00:03:25.680Z,992.74
2018-06-27T00:04:25.888Z,992.73
2018-06-27T00:05:26.086Z,992.79
2018-06-27T00:06:26.266Z,992.81
2018-06-27T00:07:26.482Z,992.80
2018-06-27T00:08:26.665Z,992.81
2018-06-27T00:09:26.861Z,992.76
2018-06-27T00:10:27.058Z,992.78
2018-06-27T00:11:27.268Z,992.74
2018-06-27T00:12:27.465Z,992.82
2018-06-27T00:13:27.660Z,992.79
2018-06-27T00:14:27.864Z,992.75
2018-06-27T00:15:28.083Z,992.75
2018-06-27T00:16:28.294Z,992.78
2018-06-27T00:17:28.491Z,992.74
2018-06-27T00:18:28.677Z,992.74
2018-06-27T00:19:28.972Z,992.73
2018-06-27T00:20:29.074Z,992.73
2018-06-27T00:21:29.292Z,992.73
2018-06-27T00:22:29.518Z,992.71
2018-06-27T00:23:29.711Z,992.68
2018-06-27T00:24:29.907Z,992.68
2018-06-27T00:25:30.107Z,992.68
2018-06-27T00:26:30.291Z,992.69
2018-06-27T00:27:30.499Z,992.70
2018-06-27T00:28:30.704Z,992.68
2018-06-27T00:29:31.060Z,992.71
2018-06-27T00:30:31.137Z,992.70
2018-06-27T00:31:31.352Z,992.68
2018-06-27T00:32:31.572Z,992.68
2018-06-27T00:33:31.779Z,992.63
2018-06-27T00:34:31.963Z,992.64
2018-06-27T00:35:32.152Z,992.62
2018-06-27T00:36:32.331Z,992.69
2018-06-27T00:37:32.541Z,992.64
2018-06-27T00:38:32.725Z,992.65
2018-06-27T00:39:32.915Z,992.64
2018-06-27T00:40:33.125Z,992.67
2018-06-27T00:41:33.335Z,992.63
2018-06-27T00:42:33.525Z,992.63
2018-06-27T00:43:33.727Z,992.63
2018-06-27T00:44:33.912Z,992.62
2018-06-27T00:45:34.094Z,992.64
2018-06-27T00:46:34.287Z,992.64
2018-06-27T00:47:34.495Z,992.61
2018-06-27T00:48:34.694Z,992.61
2018-06-27T00:49:34.905Z,992.62
2018-06-27T00:50:35.122Z,992.61
2018-06-27T00:51:35.325Z,992.60
2018-06-27T00:52:35.535Z,992.56
2018-06-27T00:53:35.735Z,992.61
2018-06-27T00:54:35.932Z,992.58
2018-06-27T00:57:07.742Z,992.55
2018-06-27T00:58:07.918Z,992.53
2018-06-27T00:59:08.115Z,992.55
2018-06-27T01:00:08.297Z,992.50
2018-06-27T01:01:08.498Z,992.50
2018-06-27T01:02:08.703Z,992.51
2018-06-27T01:03:08.903Z,992.45
2018-06-27T01:04:09.108Z,992.45
2018-06-27T01:05:09.297Z,992.48
2018-06-27T01:06:09.487Z,992.49
2018-06-27T01:07:09.681Z,992.47
2018-06-27T01:08:09.893Z,992.48
2018-06-27T01:09:10.085Z,992.44
2018-06-27T01:10:10.270Z,992.48
2018-06-27T01:11:10.463Z,992.47
2018-06-27T01:12:10.671Z,992.42
2018-06-27T01:13:10.854Z,992.43
2018-06-27T01:14:11.072Z,992.46
2018-06-27T01:15:11.287Z,992.45
2018-06-27T01:16:11.472Z,992.43
2018-06-27T01:17:11.664Z,992.46
2018-06-27T01:18:11.874Z,992.41
2018-06-27T01:19:12.082Z,992.44
2018-06-27T01:20:12.293Z,992.48
2018-06-27T01:21:12.464Z,992.44
2018-06-27T01:22:12.667Z,992.42
2018-06-27T01:23:12.854Z,992.43
2018-06-27T01:24:13.042Z,992.46
2018-06-27T01:25:13.235Z,992.48
2018-06-27T01:26:13.425Z,992.46
2018-06-27T01:27:13.622Z,992.43
2018-06-27T01:28:13.804Z,992.41
2018-06-27T01:29:14.015Z,992.42
2018-06-27T01:30:14.220Z,992.43
2018-06-27T01:31:14.410Z,992.42
2018-06-27T01:32:14.619Z,992.38
2018-06-27T01:33:14.824Z,992.37
2018-06-27T01:35:46.626Z,992.39
2018-06-27T01:36:46.853Z,992.37
2018-06-27T01:39:18.916Z,992.39
2018-06-27T01:40:19.090Z,992.39
2018-06-27T01:41:19.276Z,992.40
2018-06-27T01:42:19.484Z,992.36
2018-06-27T01:43:19.678Z,992.39
2018-06-27T01:44:19.858Z,992.39
2018-06-27T01:45:20.047Z,992.34
2018-06-27T01:46:20.250Z,992.37
2018-06-27T01:47:20.438Z,992.35
2018-06-27T01:48:20.617Z,992.37
2018-06-27T01:49:20.803Z,992.36
2018-06-27T01:50:21.012Z,992.35
2018-06-27T01:51:21.202Z,992.39
2018-06-27T01:52:21.380Z,992.39
2018-06-27T01:53:21.588Z,992.40
2018-06-27T01:54:21.780Z,992.43
2018-06-27T01:55:21.970Z,992.39
2018-06-27T01:56:22.166Z,992.40
2018-06-27T01:57:22.360Z,992.41
2018-06-27T01:58:22.549Z,992.37
2018-06-27T01:59:22.741Z,992.41
2018-06-27T02:00:22.957Z,992.40
2018-06-27T02:01:23.142Z,992.41
2018-06-27T02:02:23.338Z,992.41
2018-06-27T02:03:23.528Z,992.41
2018-06-27T02:04:23.736Z,992.42
2018-06-27T02:05:23.944Z,992.45
2018-06-27T02:06:24.129Z,992.43
2018-06-27T02:07:24.314Z,992.45
2018-06-27T02:08:24.517Z,992.44
2018-06-27T02:09:24.721Z,992.44
2018-06-27T02:10:24.907Z,992.41
2018-06-27T02:11:25.104Z,992.45
2018-06-27T02:12:25.313Z,992.46
2018-06-27T02:13:25.506Z,992.45
2018-06-27T02:14:25.689Z,992.46
2018-06-27T02:15:25.893Z,992.48
2018-06-27T02:16:26.103Z,992.47
2018-06-27T02:17:26.292Z,992.51
2018-06-27T02:18:26.505Z,992.49
2018-06-27T02:20:58.706Z,992.47
2018-06-27T02:21:58.879Z,992.48
2018-06-27T02:22:59.069Z,992.45
2018-06-27T02:23:59.299Z,992.47
2018-06-27T02:24:59.489Z,992.45
2018-06-27T02:25:59.706Z,992.44
2018-06-27T02:26:59.898Z,992.46
2018-06-27T02:28:00.088Z,992.42
2018-06-27T02:29:00.273Z,992.45
2018-06-27T02:30:00.483Z,992.48
2018-06-27T02:31:00.680Z,992.45
2018-06-27T02:32:00.881Z,992.45
2018-06-27T02:33:01.077Z,992.45
2018-06-27T02:34:01.285Z,992.50
2018-06-27T02:35:01.516Z,992.54
2018-06-27T02:36:01.709Z,992.51
2018-06-27T02:37:01.915Z,992.49
2018-06-27T02:38:02.098Z,992.50
2018-06-27T02:39:02.293Z,992.50
2018-06-27T02:40:02.465Z,992.47
2018-06-27T02:41:02.677Z,992.50
2018-06-27T02:42:02.865Z,992.47
2018-06-27T02:43:03.092Z,992.49
2018-06-27T02:44:03.265Z,992.49
2018-06-27T02:45:03.444Z,992.50
2018-06-27T02:46:03.647Z,992.51
2018-06-27T02:47:03.853Z,992.53
2018-06-27T02:48:04.048Z,992.51
2018-06-27T02:49:04.253Z,992.51
2018-06-27T02:50:04.434Z,992.54
2018-06-27T02:51:04.638Z,992.57
2018-06-27T02:52:04.840Z,992.56
2018-06-27T02:53:05.055Z,992.56
2018-06-27T02:54:05.271Z,992.57
2018-06-27T02:55:05.464Z,992.55
2018-06-27T02:56:05.656Z,992.55
2018-06-27T02:57:05.858Z,992.59
2018-06-27T02:58:06.055Z,992.59
2018-06-27T02:59:06.246Z,992.58
2018-06-27T03:00:06.433Z,992.58
2018-06-27T03:01:06.639Z,992.60
2018-06-27T03:02:06.825Z,992.60
2018-06-27T03:03:07.039Z,992.60
2018-06-27T03:04:07.317Z,992.59
2018-06-27T03:05:07.381Z,992.59
2018-06-27T03:07:39.195Z,992.61
2018-06-27T03:08:39.380Z,992.61
2018-06-27T03:09:39.588Z,992.59
2018-06-27T03:10:39.788Z,992.63
2018-06-27T03:11:39.982Z,992.60
2018-06-27T03:12:40.177Z,992.62
2018-06-27T03:13:40.364Z,992.62
2018-06-27T03:14:40.582Z,992.66
2018-06-27T03:15:40.755Z,992.63
2018-06-27T03:16:40.952Z,992.64
2018-06-27T03:17:41.146Z,992.59
2018-06-27T03:18:41.325Z,992.63
2018-06-27T03:19:41.535Z,992.63
2018-06-27T03:20:41.745Z,992.61
2018-06-27T03:21:41.956Z,992.61
2018-06-27T03:22:42.166Z,992.62
2018-06-27T03:23:42.380Z,992.61
2018-06-27T03:24:42.560Z,992.63
2018-06-27T03:25:42.754Z,992.67
2018-06-27T03:26:42.966Z,992.66
2018-06-27T03:27:43.170Z,992.62
2018-06-27T03:28:43.355Z,992.63
2018-06-27T03:29:43.555Z,992.68
2018-06-27T03:30:43.754Z,992.70
2018-06-27T03:31:43.955Z,992.68
2018-06-27T03:32:44.163Z,992.68
2018-06-27T03:33:44.360Z,992.69
2018-06-27T03:34:44.532Z,992.72
2018-06-27T03:35:44.718Z,992.70
2018-06-27T03:36:44.918Z,992.70
2018-06-27T03:37:45.106Z,992.71
2018-06-27T03:38:45.316Z,992.71
2018-06-27T03:39:45.531Z,992.70
2018-06-27T03:40:45.742Z,992.68
2018-06-27T03:41:45.926Z,992.71
2018-06-27T03:42:46.128Z,992.65
2018-06-27T03:43:46.338Z,992.63
2018-06-27T03:44:46.519Z,992.63
2018-06-27T03:45:46.714Z,992.66
2018-06-27T03:46:46.921Z,992.66
2018-06-27T03:47:47.126Z,992.72
2018-06-27T03:48:47.308Z,992.68
2018-06-27T03:49:47.516Z,992.69
2018-06-27T03:50:47.717Z,992.71
2018-06-27T03:51:47.926Z,992.73
2018-06-27T03:52:48.165Z,992.73
2018-06-27T03:53:48.372Z,992.78
2018-06-27T03:56:21.262Z,992.80
2018-06-27T03:57:20.933Z,992.80
2018-06-27T03:58:21.120Z,992.79
2018-06-27T03:59:21.348Z,992.80
2018-06-27T04:00:21.555Z,992.79
2018-06-27T04:01:21.751Z,992.79
2018-06-27T04:02:21.960Z,992.76
2018-06-27T04:03:22.155Z,992.77
2018-06-27T04:04:22.377Z,992.76
2018-06-27T04:05:22.574Z,992.79
2018-06-27T04:06:22.758Z,992.80
2018-06-27T04:07:22.966Z,992.80
2018-06-27T04:08:23.172Z,992.76
2018-06-27T04:09:23.381Z,992.78
2018-06-27T04:10:23.572Z,992.79
2018-06-27T04:11:23.770Z,992.75
2018-06-27T04:12:23.980Z,992.74
2018-06-27T04:13:24.301Z,992.75
2018-06-27T04:14:24.374Z,992.73
2018-06-27T04:15:24.535Z,992.78
2018-06-27T04:16:24.719Z,992.79
2018-06-27T04:17:24.905Z,992.80
2018-06-27T04:18:25.106Z,992.84
2018-06-27T04:19:25.307Z,992.88
2018-06-27T04:20:25.521Z,992.88
2018-06-27T04:21:25.705Z,992.94
2018-06-27T04:22:25.924Z,993.01
2018-06-27T04:23:26.124Z,993.04
2018-06-27T04:24:26.353Z,993.08
2018-06-27T04:25:26.552Z,993.04
2018-06-27T04:26:26.763Z,993.03
2018-06-27T04:27:26.955Z,993.04
2018-06-27T04:28:27.146Z,993.00
2018-06-27T04:29:27.356Z,993.09
2018-06-27T04:30:27.542Z,993.10
2018-06-27T04:31:27.738Z,993.08
2018-06-27T04:32:27.949Z,992.94
2018-06-27T04:33:28.145Z,993.03
2018-06-27T04:34:28.359Z,993.06
2018-06-27T04:35:28.545Z,993.08
2018-06-27T04:36:28.762Z,993.14
2018-06-27T04:37:28.964Z,993.17
2018-06-27T04:38:29.166Z,993.19
2018-06-27T04:39:29.377Z,993.25
2018-06-27T04:40:29.575Z,993.24
2018-06-27T04:41:29.770Z,993.23
2018-06-27T04:42:29.965Z,993.28
2018-06-27T04:43:30.177Z,993.22
2018-06-27T04:44:30.361Z,993.26
2018-06-27T04:45:30.552Z,993.31
2018-06-27T04:46:30.763Z,993.25
2018-06-27T04:47:30.979Z,993.42
2018-06-27T04:48:31.186Z,993.45
2018-06-27T04:49:31.452Z,993.41
2018-06-27T04:50:31.588Z,993.46
2018-06-27T04:51:31.781Z,993.52
2018-06-27T04:52:31.967Z,993.58
2018-06-27T04:53:32.173Z,993.57
2018-06-27T04:54:32.385Z,993.66
2018-06-27T04:55:32.599Z,993.70
2018-06-27T04:56:32.798Z,993.76
2018-06-27T04:57:32.990Z,993.88
2018-06-27T04:58:33.190Z,994.02
2018-06-27T04:59:33.388Z,994.17
2018-06-27T05:00:33.583Z,994.53
2018-06-27T05:01:33.786Z,994.88
2018-06-27T05:02:33.997Z,995.07
2018-06-27T05:03:34.192Z,995.20
2018-06-27T05:04:34.405Z,995.37
2018-06-27T05:07:06.713Z,996.28
2018-06-27T05:08:06.892Z,997.33
2018-06-27T05:09:07.096Z,997.10
2018-06-27T05:10:07.298Z,995.80
2018-06-27T05:11:07.494Z,994.88
2018-06-27T05:12:07.697Z,994.65
2018-06-27T05:13:07.885Z,994.60
2018-06-27T05:14:08.076Z,994.51
2018-06-27T05:15:08.292Z,994.35
2018-06-27T05:16:08.504Z,994.19
2018-06-27T05:17:08.707Z,994.13
2018-06-27T05:18:08.901Z,994.04
2018-06-27T05:19:09.109Z,993.99
2018-06-27T05:20:09.300Z,993.96
2018-06-27T05:21:09.512Z,993.92
2018-06-27T05:22:09.727Z,993.90
2018-06-27T05:23:09.936Z,993.87
2018-06-27T05:24:10.126Z,993.90
2018-06-27T05:25:10.325Z,993.88
2018-06-27T05:26:10.536Z,993.89
2018-06-27T05:27:10.726Z,993.87
2018-06-27T05:28:10.919Z,993.91
2018-06-27T05:29:11.113Z,993.91
2018-06-27T05:30:11.316Z,993.88
2018-06-27T05:31:11.536Z,993.86
2018-06-27T05:32:11.737Z,993.87
2018-06-27T05:33:11.938Z,993.84
2018-06-27T05:34:12.140Z,993.90
2018-06-27T05:35:12.331Z,993.86
2018-06-27T05:36:12.523Z,993.89
2018-06-27T05:37:12.715Z,993.93
2018-06-27T05:38:12.929Z,993.95
2018-06-27T05:39:13.145Z,994.01
2018-06-27T05:40:13.336Z,994.04
2018-06-27T05:41:13.569Z,994.03
2018-06-27T05:42:13.762Z,994.06
2018-06-27T05:43:13.956Z,994.06
2018-06-27T05:44:14.182Z,994.08
2018-06-27T05:45:14.375Z,994.11
2018-06-27T05:47:46.516Z,994.12
2018-06-27T05:48:46.703Z,994.11
2018-06-27T05:49:46.919Z,994.15
2018-06-27T05:50:47.124Z,994.11
2018-06-27T05:51:47.340Z,994.14
2018-06-27T05:54:19.517Z,994.16
2018-06-27T05:55:19.705Z,994.19
2018-06-27T05:56:19.920Z,994.24
2018-06-27T05:57:20.113Z,994.25
2018-06-27T05:58:20.417Z,994.26
2018-06-27T05:59:20.503Z,994.29
2018-06-27T06:00:20.746Z,994.26
2018-06-27T06:01:20.939Z,994.30
2018-06-27T06:02:21.136Z,994.31
2018-06-27T06:03:21.358Z,994.31
2018-06-27T06:04:21.599Z,994.35
2018-06-27T06:05:21.780Z,994.29
2018-06-27T06:06:22.012Z,994.28
2018-06-27T06:07:22.213Z,994.25
2018-06-27T06:08:22.415Z,994.24
2018-06-27T06:09:22.634Z,994.25
2018-06-27T06:10:22.846Z,994.27
2018-06-27T06:11:23.094Z,994.33
2018-06-27T06:12:23.289Z,994.44
2018-06-27T06:13:23.485Z,994.64
2018-06-27T06:14:23.697Z,994.69
2018-06-27T06:15:23.930Z,994.70
2018-06-27T06:16:24.128Z,994.74
2018-06-27T06:17:24.336Z,994.78
2018-06-27T06:18:24.550Z,994.81
2018-06-27T06:19:24.757Z,994.82
2018-06-27T06:20:24.971Z,994.79
2018-06-27T06:21:25.179Z,994.80
2018-06-27T06:22:25.381Z,994.82
2018-06-27T06:24:57.567Z,994.77
2018-06-27T06:25:57.752Z,994.72
2018-06-27T06:26:57.961Z,994.69
2018-06-27T06:27:58.189Z,994.69
2018-06-27T06:28:58.385Z,994.70
2018-06-27T06:29:58.582Z,994.73
2018-06-27T06:30:58.778Z,994.70
2018-06-27T06:31:58.980Z,994.67
2018-06-27T06:32:59.298Z,994.71
2018-06-27T06:33:59.386Z,994.68
2018-06-27T06:34:59.606Z,994.66
2018-06-27T06:35:59.821Z,994.70
2018-06-27T06:37:00.030Z,994.69
2018-06-27T06:38:00.237Z,994.69
2018-06-27T06:39:00.439Z,994.71
2018-06-27T06:40:00.642Z,994.68
2018-06-27T06:41:00.840Z,994.70
2018-06-27T06:42:01.056Z,994.70
2018-06-27T06:43:01.255Z,994.70
2018-06-27T06:44:01.476Z,994.69
2018-06-27T06:45:01.712Z,994.70
2018-06-27T06:46:01.976Z,994.67
2018-06-27T06:47:02.127Z,994.72
2018-06-27T06:48:02.354Z,994.65
2018-06-27T06:49:02.557Z,994.72
2018-06-27T06:50:02.771Z,994.70
2018-06-27T06:51:02.984Z,994.74
2018-06-27T06:52:03.247Z,994.78
2018-06-27T06:53:03.401Z,994.73
2018-06-27T06:54:03.652Z,994.72
2018-06-27T06:55:03.861Z,994.78
2018-06-27T06:56:04.052Z,994.76
2018-06-27T06:57:04.252Z,994.74
2018-06-27T06:58:04.452Z,994.74
2018-06-27T06:59:04.657Z,994.73
2018-06-27T07:00:04.864Z,994.81
2018-06-27T07:01:05.084Z,994.74
2018-06-27T07:02:05.295Z,994.71
2018-06-27T07:03:05.494Z,994.67
2018-06-27T07:04:05.717Z,994.68
2018-06-27T07:05:05.947Z,994.73
2018-06-27T07:06:06.145Z,994.71
2018-06-27T07:07:06.375Z,994.69
2018-06-27T07:08:06.578Z,994.66
2018-06-27T07:09:06.777Z,994.61
2018-06-27T07:10:06.996Z,994.57
2018-06-27T07:11:07.276Z,994.55
2018-06-27T07:12:07.435Z,994.54
2018-06-27T07:13:07.635Z,994.54
2018-06-27T07:14:07.851Z,994.57
2018-06-27T07:15:08.045Z,994.60
2018-06-27T07:16:08.270Z,994.57
2018-06-27T07:17:08.483Z,994.54
2018-06-27T07:18:08.699Z,994.51
2018-06-27T07:19:08.900Z,994.51
2018-06-27T07:20:09.100Z,994.47
2018-06-27T07:21:09.297Z,994.46
2018-06-27T07:22:09.591Z,994.44
2018-06-27T07:23:09.677Z,994.38
2018-06-27T07:24:09.872Z,994.38
2018-06-27T07:25:10.095Z,994.37
2018-06-27T07:27:42.447Z,994.34
2018-06-27T07:28:42.736Z,994.32
2018-06-27T07:29:42.847Z,994.34
2018-06-27T07:30:43.047Z,994.32
2018-06-27T07:31:43.264Z,994.31
2018-06-27T07:32:43.571Z,994.27
2018-06-27T07:33:43.664Z,994.21
2018-06-27T07:34:43.880Z,994.22
2018-06-27T07:35:44.081Z,994.17
2018-06-27T07:36:44.281Z,994.12
2018-06-27T07:37:44.487Z,994.14
2018-06-27T07:38:44.706Z,994.08
2018-06-27T07:39:44.929Z,994.17
2018-06-27T07:40:45.142Z,994.09
2018-06-27T07:41:45.378Z,994.04
2018-06-27T07:42:45.575Z,994.02
2018-06-27T07:45:17.728Z,994.02
2018-06-27T07:46:17.934Z,993.98
2018-06-27T07:47:18.155Z,993.95
2018-06-27T07:48:18.377Z,993.92
2018-06-27T07:49:18.584Z,993.94
2018-06-27T07:50:18.811Z,993.93
2018-06-27T07:51:19.025Z,993.94
2018-06-27T07:52:19.245Z,993.92
2018-06-27T07:53:19.463Z,993.92
2018-06-27T07:54:19.671Z,993.89
2018-06-27T07:55:19.887Z,993.92
2018-06-27T07:56:20.089Z,993.91
2018-06-27T07:57:20.299Z,993.94
2018-06-27T07:58:20.503Z,993.97
2018-06-27T07:59:20.725Z,993.95
2018-06-27T08:00:20.943Z,993.97
2018-06-27T08:01:21.153Z,994.00
2018-06-27T08:02:21.349Z,993.97
2018-06-27T08:03:21.580Z,994.01
2018-06-27T08:04:21.787Z,994.01
2018-06-27T08:05:22.007Z,994.04
2018-06-27T08:06:22.203Z,994.06
2018-06-27T08:07:22.402Z,994.04
2018-06-27T08:08:22.615Z,994.03
2018-06-27T08:09:22.875Z,993.99
2018-06-27T08:10:23.075Z,993.97
2018-06-27T08:11:23.276Z,994.01
2018-06-27T08:12:23.555Z,993.99
2018-06-27T08:13:23.677Z,994.00
2018-06-27T08:14:23.888Z,993.97
2018-06-27T08:15:24.103Z,994.02
2018-06-27T08:16:24.311Z,994.01
2018-06-27T08:17:24.552Z,994.00
2018-06-27T08:18:24.785Z,994.03
2018-06-27T08:19:25.006Z,994.07
2018-06-27T08:20:25.215Z,994.12
2018-06-27T08:21:25.416Z,994.09
2018-06-27T08:22:25.616Z,994.12
2018-06-27T08:23:25.836Z,994.11
2018-06-27T08:24:26.064Z,994.19
2018-06-27T08:25:26.269Z,994.21
2018-06-27T08:26:26.721Z,994.22
2018-06-27T08:27:26.680Z,994.22
2018-06-27T08:28:26.890Z,994.20
2018-06-27T08:29:27.113Z,994.22
2018-06-27T08:30:27.314Z,994.21
2018-06-27T08:31:27.517Z,994.22
2018-06-27T08:32:27.755Z,994.18
2018-06-27T08:33:27.955Z,994.27
2018-06-27T08:34:28.169Z,994.21
2018-06-27T08:35:28.380Z,994.27
2018-06-27T08:36:28.579Z,994.21
2018-06-27T08:37:28.795Z,994.26
2018-06-27T08:38:29.009Z,994.19
2018-06-27T08:39:29.250Z,994.26
2018-06-27T08:40:29.470Z,994.21
2018-06-27T08:41:29.694Z,994.26
2018-06-27T08:42:29.920Z,994.32
2018-06-27T08:43:30.126Z,994.35
2018-06-27T08:44:30.418Z,994.33
2018-06-27T08:45:30.537Z,994.31
2018-06-27T08:46:30.757Z,994.37
2018-06-27T08:47:30.977Z,994.40
2018-06-27T08:48:31.195Z,994.34
2018-06-27T08:49:31.418Z,994.49
2018-06-27T08:50:31.650Z,994.50
2018-06-27T08:51:31.897Z,994.44
2018-06-27T08:52:32.112Z,994.45
2018-06-27T08:55:04.257Z,994.40
2018-06-27T08:56:04.443Z,994.43
2018-06-27T08:57:04.644Z,994.51
2018-06-27T08:58:04.866Z,994.52
2018-06-27T08:59:05.084Z,994.44
2018-06-27T09:00:05.308Z,994.47
2018-06-27T09:01:05.525Z,994.54
2018-06-27T09:02:05.750Z,994.57
2018-06-27T09:03:05.951Z,994.52
2018-06-27T09:04:06.175Z,994.56
2018-06-27T09:05:06.406Z,994.56
2018-06-27T09:06:06.614Z,994.55
2018-06-27T09:07:06.817Z,994.57
2018-06-27T09:08:07.040Z,994.59
2018-06-27T09:09:07.273Z,994.64
2018-06-27T09:10:07.473Z,994.65
2018-06-27T09:11:07.696Z,994.64
2018-06-27T09:12:07.917Z,994.66
2018-06-27T09:13:08.125Z,994.70
2018-06-27T09:14:08.348Z,994.67
2018-06-27T09:15:08.547Z,994.61
2018-06-27T09:16:08.748Z,994.66
2018-06-27T09:17:08.961Z,994.73
2018-06-27T09:18:09.177Z,994.75
2018-06-27T09:19:09.405Z,994.71
2018-06-27T09:20:09.601Z,994.77
2018-06-27T09:21:09.816Z,994.81
2018-06-27T09:22:10.039Z,994.79
2018-06-27T09:23:10.268Z,994.88
2018-06-27T09:24:10.494Z,994.90
2018-06-27T09:26:42.345Z,994.95
2018-06-27T09:27:42.528Z,994.97
2018-06-27T09:28:42.719Z,995.08
2018-06-27T09:29:42.948Z,995.06
2018-06-27T09:30:43.162Z,995.07
2018-06-27T09:31:43.368Z,995.09
2018-06-27T09:32:43.595Z,995.05
2018-06-27T09:33:43.813Z,995.13
2018-06-27T09:34:44.032Z,995.26
2018-06-27T09:35:44.227Z,995.26
2018-06-27T09:36:44.454Z,995.36
2018-06-27T09:37:44.664Z,995.41
2018-06-27T09:38:44.889Z,995.35
2018-06-27T09:39:45.100Z,995.47
2018-06-27T09:40:45.299Z,994.81
2018-06-27T09:41:45.507Z,993.93
2018-06-27T09:42:45.701Z,993.69
2018-06-27T09:43:45.902Z,993.81
2018-06-27T09:44:46.107Z,993.61
2018-06-27T09:45:46.316Z,993.73
2018-06-27T09:46:46.535Z,993.71
2018-06-27T09:47:46.754Z,993.49
2018-06-27T09:48:46.960Z,993.77
2018-06-27T09:49:47.164Z,993.64
2018-06-27T09:50:47.384Z,993.78
2018-06-27T09:53:19.256Z,993.66
2018-06-27T09:54:19.448Z,993.62
2018-06-27T09:55:19.675Z,993.15
2018-06-27T09:56:19.883Z,993.10
2018-06-27T09:57:20.098Z,993.23
2018-06-27T09:58:20.326Z,993.60
2018-06-27T09:59:20.518Z,993.64
2018-06-27T10:00:20.727Z,993.67
2018-06-27T10:01:20.928Z,993.58
2018-06-27T10:02:21.142Z,993.62
2018-06-27T10:03:21.335Z,993.55
2018-06-27T10:04:21.541Z,993.56
2018-06-27T10:05:21.768Z,993.48
2018-06-27T10:06:21.973Z,993.44
2018-06-27T10:07:22.171Z,993.48
2018-06-27T10:08:22.389Z,993.46
2018-06-27T10:09:22.610Z,993.42
2018-06-27T10:10:22.826Z,993.36
2018-06-27T10:11:23.049Z,993.43
2018-06-27T10:12:23.251Z,993.44
2018-06-27T10:13:23.504Z,992.94
2018-06-27T10:14:23.684Z,993.33
2018-06-27T10:15:23.883Z,993.30
2018-06-27T10:16:24.084Z,993.33
2018-06-27T10:17:24.284Z,993.27
2018-06-27T10:18:24.503Z,993.25
2018-06-27T10:19:24.729Z,993.33
2018-06-27T10:20:24.944Z,993.24
2018-06-27T10:22:57.271Z,992.76
2018-06-27T10:23:57.327Z,992.94
2018-06-27T10:24:57.525Z,993.19
2018-06-27T10:25:57.739Z,993.13
2018-06-27T10:26:57.956Z,993.21
2018-06-27T10:27:58.160Z,993.10
2018-06-27T10:28:58.391Z,993.12
2018-06-27T10:29:58.586Z,993.08
2018-06-27T10:30:58.777Z,993.09
2018-06-27T10:31:58.982Z,993.00
2018-06-27T10:32:59.184Z,992.97
2018-06-27T10:33:59.456Z,992.83
2018-06-27T10:34:59.549Z,992.92
2018-06-27T10:35:59.732Z,992.83
2018-06-27T10:36:59.954Z,992.87
2018-06-27T10:38:00.178Z,992.70
2018-06-27T10:39:00.397Z,992.80
2018-06-27T10:40:00.611Z,992.67
2018-06-27T10:41:00.822Z,992.69
2018-06-27T10:42:01.024Z,992.70
2018-06-27T10:43:01.224Z,992.68
2018-06-27T10:44:01.451Z,992.78
2018-06-27T10:45:01.712Z,992.70
2018-06-27T10:46:01.882Z,992.66
2018-06-27T10:47:02.101Z,992.73
2018-06-27T10:48:02.317Z,992.84
2018-06-27T10:49:02.510Z,992.76
2018-06-27T10:50:02.725Z,992.71
2018-06-27T10:51:03.831Z,992.68
2018-06-27T10:52:03.148Z,992.64
2018-06-27T10:53:03.350Z,992.70
2018-06-27T10:54:03.546Z,992.64
2018-06-27T10:55:03.755Z,992.56
2018-06-27T10:56:03.962Z,992.63
2018-06-27T10:57:04.152Z,992.74
2018-06-27T10:58:04.342Z,992.61
2018-06-27T10:59:04.553Z,992.61
2018-06-27T11:00:04.788Z,992.57
2018-06-27T11:01:05.018Z,992.66
2018-06-27T11:02:05.203Z,992.67
2018-06-27T11:03:05.399Z,992.59
2018-06-27T11:04:05.692Z,992.58
2018-06-27T11:05:05.771Z,992.63
2018-06-27T11:06:05.972Z,992.68
2018-06-27T11:07:06.191Z,992.69
2018-06-27T11:08:06.412Z,992.64
2018-06-27T11:09:06.612Z,992.59
2018-06-27T11:10:06.813Z,992.60
2018-06-27T11:11:07.025Z,992.56
2018-06-27T11:12:07.221Z,992.61
2018-06-27T11:14:39.490Z,992.74
2018-06-27T11:15:39.678Z,992.79
2018-06-27T11:16:39.881Z,992.72
2018-06-27T11:17:40.096Z,992.58
2018-06-27T11:18:40.311Z,992.54
2018-06-27T11:19:40.511Z,992.58
2018-06-27T11:20:40.704Z,992.63
2018-06-27T11:21:40.952Z,992.66
2018-06-27T11:22:41.144Z,992.73
2018-06-27T11:23:41.353Z,992.61
2018-06-27T11:24:41.568Z,992.60
2018-06-27T11:25:41.777Z,992.62
2018-06-27T11:26:41.996Z,992.67
2018-06-27T11:27:42.212Z,992.52
2018-06-27T11:28:42.437Z,992.50
2018-06-27T11:31:14.674Z,992.51
2018-06-27T11:32:14.863Z,992.55
2018-06-27T11:33:15.064Z,992.69
2018-06-27T11:34:15.277Z,992.60
2018-06-27T11:35:15.479Z,992.58
2018-06-27T11:36:15.686Z,992.62
2018-06-27T11:37:15.903Z,992.61
2018-06-27T11:38:16.100Z,992.65
2018-06-27T11:39:16.295Z,992.68
2018-06-27T11:40:16.515Z,992.64
2018-06-27T11:41:16.707Z,992.64
2018-06-27T11:42:16.917Z,992.61
2018-06-27T11:43:17.189Z,992.62
2018-06-27T11:44:17.345Z,992.68
2018-06-27T11:45:17.565Z,992.61
2018-06-27T11:46:17.776Z,992.45
2018-06-27T11:47:17.975Z,992.59
2018-06-27T11:48:18.198Z,992.63
2018-06-27T11:49:18.394Z,992.58
2018-06-27T11:50:18.594Z,992.57
2018-06-27T11:51:18.803Z,992.64
2018-06-27T11:52:19.003Z,992.67
2018-06-27T11:54:51.400Z,992.66
2018-06-27T11:55:51.343Z,992.70
2018-06-27T11:56:51.564Z,992.67
2018-06-27T11:57:51.782Z,992.63
2018-06-27T11:58:51.998Z,992.65
2018-06-27T11:59:52.190Z,992.62
2018-06-27T12:00:52.385Z,992.64
2018-06-27T12:01:52.573Z,992.62
2018-06-27T12:02:52.786Z,992.48
2018-06-27T12:03:53.008Z,992.57
2018-06-27T12:04:53.199Z,992.72
2018-06-27T12:05:53.401Z,992.67
2018-06-27T12:06:53.615Z,992.66
2018-06-27T12:07:53.825Z,992.62
2018-06-27T12:08:54.042Z,992.63
2018-06-27T12:09:54.247Z,992.60
2018-06-27T12:10:54.442Z,992.47
2018-06-27T12:11:54.659Z,992.47
2018-06-27T12:12:54.873Z,992.43
2018-06-27T12:13:55.063Z,992.46
2018-06-27T12:16:27.226Z,992.54
2018-06-27T12:17:27.403Z,992.58
2018-06-27T12:18:27.595Z,992.60
2018-06-27T12:19:27.797Z,992.53
2018-06-27T12:20:27.985Z,992.47
2018-06-27T12:21:28.201Z,992.50
2018-06-27T12:22:28.450Z,992.45
2018-06-27T12:23:28.645Z,992.48
2018-06-27T12:24:28.847Z,992.46
2018-06-27T12:25:29.115Z,992.44
2018-06-27T12:26:29.328Z,992.44
2018-06-27T12:27:29.389Z,992.35
2018-06-27T12:28:29.587Z,992.30
2018-06-27T12:29:29.785Z,992.30
2018-06-27T12:30:30.005Z,992.28
2018-06-27T12:31:30.199Z,992.26
2018-06-27T12:32:30.389Z,992.35
2018-06-27T12:33:30.604Z,992.48
2018-06-27T12:34:30.826Z,992.32
2018-06-27T12:35:31.033Z,992.33
2018-06-27T12:36:31.224Z,992.44
2018-06-27T12:37:31.423Z,992.42
2018-06-27T12:38:31.677Z,992.34
2018-06-27T12:39:31.856Z,992.35
2018-06-27T12:40:32.053Z,992.23
2018-06-27T12:41:32.253Z,992.39
2018-06-27T12:42:32.458Z,992.35
2018-06-27T12:43:32.675Z,992.31
2018-06-27T12:44:32.890Z,992.33
2018-06-27T12:45:33.105Z,992.23
2018-06-27T12:46:33.308Z,992.32
2018-06-27T12:47:33.508Z,992.25
2018-06-27T12:48:33.717Z,992.24
2018-06-27T12:49:33.925Z,992.35
2018-06-27T12:50:34.126Z,992.30
2018-06-27T12:51:34.326Z,992.30
2018-06-27T12:52:34.534Z,992.30
2018-06-27T12:53:34.752Z,992.29
2018-06-27T12:54:34.944Z,992.18
2018-06-27T12:55:35.159Z,992.31
2018-06-27T12:56:35.360Z,992.22
2018-06-27T12:57:35.555Z,992.21
2018-06-27T12:58:35.811Z,992.21
2018-06-27T12:59:36.037Z,992.22
2018-06-27T13:00:36.236Z,992.26
2018-06-27T13:01:36.450Z,992.25